createdAt,value
2023-09-18T00:00:16.231Z, 25.35
2023-09-18T00:01:16.325Z, 25.36
2023-09-18T00:02:16.289Z, 25.35
2023-09-18T00:03:16.352Z, 25.35
2023-09-18T00:04:16.288Z, 25.35
2023-09-18T00:05:16.349Z, 25.35
2023-09-18T00:06:16.378Z, 25.35
2023-09-18T00:07:16.317Z, 25.35
2023-09-18T00:08:16.412Z, 25.35
2023-09-18T00:09:16.374Z, 25.35
2023-09-18T00:10:16.418Z, 25.35
2023-09-18T00:11:16.426Z, 25.35
2023-09-18T00:12:16.364Z, 25.35
2023-09-18T00:13:16.360Z, 25.35
2023-09-18T00:14:16.413Z, 25.35
2023-09-18T00:15:16.488Z, 25.35
2023-09-18T00:16:16.457Z, 25.35
2023-09-18T00:17:16.492Z, 25.35
2023-09-18T00:18:16.603Z, 25.35
2023-09-18T00:19:16.472Z, 25.35
2023-09-18T00:20:16.569Z, 25.35
2023-09-18T00:21:16.504Z, 25.35
2023-09-18T00:22:16.547Z, 25.35
2023-09-18T00:23:16.524Z, 25.34
2023-09-18T00:24:16.543Z, 25.35
2023-09-18T00:25:16.519Z, 25.35
2023-09-18T00:26:16.572Z, 25.35
2023-09-18T00:27:16.543Z, 25.34
2023-09-18T00:28:16.531Z, 25.35
2023-09-18T00:29:16.654Z, 25.34
2023-09-18T00:30:16.623Z, 25.34
2023-09-18T00:31:16.704Z, 25.34
2023-09-18T00:32:16.639Z, 25.34
2023-09-18T00:33:16.761Z, 25.34
2023-09-18T00:34:16.626Z, 25.34
2023-09-18T00:35:16.699Z, 25.34
2023-09-18T00:36:16.664Z, 25.34
2023-09-18T00:37:16.653Z, 25.34
2023-09-18T00:38:16.761Z, 25.34
2023-09-18T00:39:16.841Z, 25.34
2023-09-18T00:40:16.738Z, 25.34
2023-09-18T00:41:16.794Z, 25.34
2023-09-18T00:42:16.730Z, 25.34
2023-09-18T00:43:16.782Z, 25.34
2023-09-18T00:44:16.791Z, 25.34
2023-09-18T00:45:16.801Z, 25.34
2023-09-18T00:46:16.808Z, 25.34
2023-09-18T00:47:16.828Z, 25.34
2023-09-18T00:48:16.868Z, 25.33
2023-09-18T00:49:16.783Z, 25.34
2023-09-18T00:50:16.867Z, 25.33
2023-09-18T00:51:16.850Z, 25.33
2023-09-18T00:52:16.832Z, 25.33
2023-09-18T00:53:16.898Z, 25.33
2023-09-18T00:54:16.926Z, 25.33
2023-09-18T00:55:16.889Z, 25.33
2023-09-18T00:56:16.987Z, 25.33
2023-09-18T00:57:16.917Z, 25.33
2023-09-18T00:58:16.992Z, 25.33
2023-09-18T00:59:16.958Z, 25.33
2023-09-18T01:00:17.012Z, 25.33
2023-09-18T01:01:17.019Z, 25.33
2023-09-18T01:02:17.054Z, 25.33
2023-09-18T01:03:17.120Z, 25.33
2023-09-18T01:04:16.979Z, 25.32
2023-09-18T01:05:17.127Z, 25.32
2023-09-18T01:06:17.027Z, 25.32
2023-09-18T01:07:17.025Z, 25.32
2023-09-18T01:08:17.135Z, 25.33
2023-09-18T01:09:17.029Z, 25.32
2023-09-18T01:10:17.066Z, 25.32
2023-09-18T01:11:17.059Z, 25.32
2023-09-18T01:12:17.137Z, 25.32
2023-09-18T01:13:17.155Z, 25.32
2023-09-18T01:14:17.199Z, 25.32
2023-09-18T01:15:17.152Z, 25.32
2023-09-18T01:16:17.245Z, 25.32
2023-09-18T01:17:17.172Z, 25.32
2023-09-18T01:18:17.217Z, 25.32
2023-09-18T01:19:17.201Z, 25.32
2023-09-18T01:20:17.210Z, 25.32
2023-09-18T01:21:17.254Z, 25.32
2023-09-18T01:22:17.251Z, 25.32
2023-09-18T01:23:17.256Z, 25.32
2023-09-18T01:24:17.319Z, 25.32
2023-09-18T01:25:17.281Z, 25.32
2023-09-18T01:26:17.337Z, 25.32
2023-09-18T01:27:17.284Z, 25.32
2023-09-18T01:28:17.354Z, 25.32
2023-09-18T01:29:17.377Z, 25.31
2023-09-18T01:30:17.353Z, 25.31
2023-09-18T01:31:17.340Z, 25.32
2023-09-18T01:32:17.426Z, 25.31
2023-09-18T01:33:17.416Z, 25.31
2023-09-18T01:34:17.346Z, 25.31
2023-09-18T01:35:17.360Z, 25.31
2023-09-18T01:36:17.356Z, 25.31
2023-09-18T01:37:17.430Z, 25.31
2023-09-18T01:38:17.430Z, 25.31
2023-09-18T01:39:17.409Z, 25.31
2023-09-18T01:40:17.436Z, 25.31
2023-09-18T01:41:17.475Z, 25.31
2023-09-18T01:42:17.480Z, 25.31
2023-09-18T01:43:17.452Z, 25.31
2023-09-18T01:44:17.516Z, 25.31
2023-09-18T01:45:17.598Z, 25.31
2023-09-18T01:46:17.592Z, 25.31
2023-09-18T01:47:17.644Z, 25.31
2023-09-18T01:48:17.614Z, 25.31
2023-09-18T01:49:17.592Z, 25.31
2023-09-18T01:50:17.593Z, 25.31
2023-09-18T01:51:17.551Z, 25.30
2023-09-18T01:52:17.573Z, 25.31
2023-09-18T01:53:17.625Z, 25.30
2023-09-18T01:54:17.583Z, 25.30
2023-09-18T01:55:17.671Z, 25.30
2023-09-18T01:56:17.634Z, 25.30
2023-09-18T01:57:17.633Z, 25.30
2023-09-18T01:58:17.626Z, 25.30
2023-09-18T01:59:17.666Z, 25.30
2023-09-18T02:00:17.724Z, 25.30
2023-09-18T02:01:17.713Z, 25.30
2023-09-18T02:02:24.368Z, 25.30
2023-09-18T02:03:31.876Z, 25.30
2023-09-18T02:04:32.040Z, 25.30
2023-09-18T02:05:17.882Z, 25.30
2023-09-18T02:06:17.866Z, 25.30
2023-09-18T02:07:17.943Z, 25.30
2023-09-18T02:08:17.849Z, 25.30
2023-09-18T02:09:17.832Z, 25.30
2023-09-18T02:10:17.777Z, 25.30
2023-09-18T02:11:17.907Z, 25.30
2023-09-18T02:12:17.812Z, 25.30
2023-09-18T02:13:17.820Z, 25.30
2023-09-18T02:14:17.882Z, 25.30
2023-09-18T02:15:17.982Z, 25.30
2023-09-18T02:16:17.995Z, 25.30
2023-09-18T02:17:17.950Z, 25.30
2023-09-18T02:18:17.969Z, 25.29
2023-09-18T02:19:17.926Z, 25.29
2023-09-18T02:20:18.015Z, 25.30
2023-09-18T02:21:17.974Z, 25.30
2023-09-18T02:22:17.970Z, 25.29
2023-09-18T02:23:18.037Z, 25.29
2023-09-18T02:24:17.964Z, 25.29
2023-09-18T02:25:18.016Z, 25.29
2023-09-18T02:26:18.036Z, 25.29
2023-09-18T02:27:19.140Z, 25.29
2023-09-18T02:28:18.035Z, 25.29
2023-09-18T02:29:18.144Z, 25.29
2023-09-18T02:30:18.074Z, 25.29
2023-09-18T02:31:18.108Z, 25.29
2023-09-18T02:32:18.268Z, 25.29
2023-09-18T02:33:18.242Z, 25.29
2023-09-18T02:34:18.131Z, 25.29
2023-09-18T02:35:18.193Z, 25.29
2023-09-18T02:36:18.187Z, 25.29
2023-09-18T02:37:18.158Z, 25.29
2023-09-18T02:38:18.182Z, 25.29
2023-09-18T02:39:18.136Z, 25.29
2023-09-18T02:40:18.208Z, 25.29
2023-09-18T02:41:18.188Z, 25.29
2023-09-18T02:42:18.170Z, 25.29
2023-09-18T02:43:18.183Z, 25.29
2023-09-18T02:44:18.237Z, 25.29
2023-09-18T02:45:18.198Z, 25.29
2023-09-18T02:46:18.236Z, 25.29
2023-09-18T02:47:18.371Z, 25.29
2023-09-18T02:48:18.278Z, 25.29
2023-09-18T02:49:18.315Z, 25.29
2023-09-18T02:50:18.359Z, 25.29
2023-09-18T02:51:18.305Z, 25.29
2023-09-18T02:52:18.338Z, 25.29
2023-09-18T02:53:18.401Z, 25.29
2023-09-18T02:54:18.336Z, 25.29
2023-09-18T02:55:18.349Z, 25.29
2023-09-18T02:56:18.359Z, 25.29
2023-09-18T02:57:18.341Z, 25.29
2023-09-18T02:58:18.342Z, 25.29
2023-09-18T02:59:18.366Z, 25.29
2023-09-18T03:00:23.845Z, 25.29
2023-09-18T03:01:18.535Z, 25.29
2023-09-18T03:02:18.475Z, 25.29
2023-09-18T03:03:18.514Z, 25.29
2023-09-18T03:04:18.437Z, 25.29
2023-09-18T03:05:18.639Z, 25.29
2023-09-18T03:06:18.498Z, 25.29
2023-09-18T03:07:18.645Z, 25.29
2023-09-18T03:08:18.631Z, 25.29
2023-09-18T03:09:18.745Z, 25.29
2023-09-18T03:10:18.645Z, 25.29
2023-09-18T03:11:18.805Z, 25.29
2023-09-18T03:12:18.635Z, 25.29
2023-09-18T03:13:18.749Z, 25.29
2023-09-18T03:14:18.783Z, 25.29
2023-09-18T03:15:18.762Z, 25.29
2023-09-18T03:16:18.764Z, 25.29
2023-09-18T03:17:18.801Z, 25.28
2023-09-18T03:18:18.784Z, 25.29
2023-09-18T03:19:18.757Z, 25.29
2023-09-18T03:20:18.781Z, 25.29
2023-09-18T03:21:18.769Z, 25.28
2023-09-18T03:22:18.889Z, 25.29
2023-09-18T03:23:18.830Z, 25.28
2023-09-18T03:24:18.910Z, 25.29
2023-09-18T03:25:18.901Z, 25.29
2023-09-18T03:26:18.806Z, 25.28
2023-09-18T03:27:18.907Z, 25.29
2023-09-18T03:28:18.963Z, 25.29
2023-09-18T03:29:18.922Z, 25.28
2023-09-18T03:30:18.915Z, 25.28
2023-09-18T03:31:18.919Z, 25.28
2023-09-18T03:32:18.957Z, 25.28
2023-09-18T03:33:18.939Z, 25.28
2023-09-18T03:34:18.914Z, 25.28
2023-09-18T03:35:18.971Z, 25.28
2023-09-18T03:36:19.045Z, 25.28
2023-09-18T03:37:18.955Z, 25.28
2023-09-18T03:38:19.137Z, 25.28
2023-09-18T03:39:19.049Z, 25.28
2023-09-18T03:40:19.056Z, 25.28
2023-09-18T03:41:19.067Z, 25.28
2023-09-18T03:42:19.048Z, 25.28
2023-09-18T03:43:19.091Z, 25.28
2023-09-18T03:44:19.094Z, 25.28
2023-09-18T03:45:19.051Z, 25.28
2023-09-18T03:46:19.103Z, 25.28
2023-09-18T03:47:19.085Z, 25.28
2023-09-18T03:48:19.109Z, 25.28
2023-09-18T03:49:19.055Z, 25.28
2023-09-18T03:50:19.078Z, 25.28
2023-09-18T03:51:19.057Z, 25.28
2023-09-18T03:52:19.200Z, 25.28
2023-09-18T03:53:19.266Z, 25.27
2023-09-18T03:54:19.226Z, 25.28
2023-09-18T03:55:19.201Z, 25.27
2023-09-18T03:56:19.252Z, 25.28
2023-09-18T03:57:19.206Z, 25.28
2023-09-18T03:58:19.208Z, 25.27
2023-09-18T03:59:19.219Z, 25.27
2023-09-18T04:00:19.211Z, 25.28
2023-09-18T04:01:19.391Z, 25.28
2023-09-18T04:02:19.401Z, 25.28
2023-09-18T04:03:19.439Z, 25.28
2023-09-18T04:04:19.431Z, 25.28
2023-09-18T04:05:19.347Z, 25.27
2023-09-18T04:06:19.349Z, 25.27
2023-09-18T04:07:19.358Z, 25.27
2023-09-18T04:08:19.387Z, 25.28
2023-09-18T04:09:19.348Z, 25.28
2023-09-18T04:10:19.355Z, 25.28
2023-09-18T04:11:19.382Z, 25.28
2023-09-18T04:12:19.368Z, 25.28
2023-09-18T04:13:19.496Z, 25.28
2023-09-18T04:14:19.545Z, 25.28
2023-09-18T04:15:19.501Z, 25.28
2023-09-18T04:16:19.426Z, 25.28
2023-09-18T04:17:19.417Z, 25.28
2023-09-18T04:18:19.579Z, 25.28
2023-09-18T04:19:19.498Z, 25.28
2023-09-18T04:20:19.502Z, 25.28
2023-09-18T04:21:19.497Z, 25.28
2023-09-18T04:22:19.496Z, 25.28
2023-09-18T04:23:19.535Z, 25.28
2023-09-18T04:24:19.500Z, 25.28
2023-09-18T04:25:19.505Z, 25.28
2023-09-18T04:26:19.507Z, 25.28
2023-09-18T04:27:19.640Z, 25.28
2023-09-18T04:28:19.542Z, 25.28
2023-09-18T04:29:19.548Z, 25.28
2023-09-18T04:30:19.637Z, 25.28
2023-09-18T04:31:19.542Z, 25.28
2023-09-18T04:32:19.740Z, 25.28
2023-09-18T04:33:19.966Z, 25.28
2023-09-18T04:34:19.684Z, 25.28
2023-09-18T04:35:19.681Z, 25.29
2023-09-18T04:36:19.784Z, 25.29
2023-09-18T04:37:19.650Z, 25.29
2023-09-18T04:38:19.843Z, 25.29
2023-09-18T04:39:19.808Z, 25.29
2023-09-18T04:40:19.778Z, 25.29
2023-09-18T04:41:19.823Z, 25.29
2023-09-18T04:42:19.684Z, 25.29
2023-09-18T04:43:19.794Z, 25.29
2023-09-18T04:44:19.803Z, 25.29
2023-09-18T04:45:19.799Z, 25.29
2023-09-18T04:46:19.897Z, 25.29
2023-09-18T04:47:19.827Z, 25.29
2023-09-18T04:48:20.002Z, 25.29
2023-09-18T04:49:19.916Z, 25.30
2023-09-18T04:50:20.014Z, 25.30
2023-09-18T04:51:19.816Z, 25.30
2023-09-18T04:52:19.811Z, 25.30
2023-09-18T04:53:19.887Z, 25.30
2023-09-18T04:54:19.821Z, 25.30
2023-09-18T04:55:19.920Z, 25.30
2023-09-18T04:56:19.947Z, 25.30
2023-09-18T04:57:20.036Z, 25.30
2023-09-18T04:58:19.931Z, 25.30
2023-09-18T04:59:19.997Z, 25.30
2023-09-18T05:00:19.979Z, 25.30
2023-09-18T05:01:20.039Z, 25.29
2023-09-18T05:02:20.018Z, 25.28
2023-09-18T05:03:20.087Z, 25.27
2023-09-18T05:04:19.990Z, 25.26
2023-09-18T05:05:20.026Z, 25.25
2023-09-18T05:06:20.140Z, 25.25
2023-09-18T05:07:20.000Z, 25.24
2023-09-18T05:08:20.069Z, 25.24
2023-09-18T05:09:20.020Z, 25.23
2023-09-18T05:10:19.999Z, 25.22
2023-09-18T05:11:20.077Z, 25.22
2023-09-18T05:12:20.015Z, 25.21
2023-09-18T05:13:20.053Z, 25.22
2023-09-18T05:14:20.069Z, 25.22
2023-09-18T05:15:20.028Z, 25.22
2023-09-18T05:16:20.068Z, 25.22
2023-09-18T05:17:20.078Z, 25.22
2023-09-18T05:18:20.248Z, 25.22
2023-09-18T05:19:20.053Z, 25.22
2023-09-18T05:20:20.484Z, 25.22
2023-09-18T05:21:20.371Z, 25.22
2023-09-18T05:22:20.229Z, 25.22
2023-09-18T05:23:20.288Z, 25.22
2023-09-18T05:24:20.228Z, 25.22
2023-09-18T05:25:20.236Z, 25.22
2023-09-18T05:26:20.399Z, 25.22
2023-09-18T05:27:20.377Z, 25.22
2023-09-18T05:28:20.376Z, 25.22
2023-09-18T05:29:20.377Z, 25.22
2023-09-18T05:30:20.381Z, 25.22
2023-09-18T05:31:20.462Z, 25.22
2023-09-18T05:32:20.454Z, 25.22
2023-09-18T05:33:20.591Z, 25.22
2023-09-18T05:34:20.547Z, 25.22
2023-09-18T05:35:20.423Z, 25.22
2023-09-18T05:36:20.404Z, 25.22
2023-09-18T05:37:21.397Z, 25.22
2023-09-18T05:38:20.576Z, 25.22
2023-09-18T05:39:20.560Z, 25.22
2023-09-18T05:40:21.579Z, 25.22
2023-09-18T05:41:25.403Z, 25.22
2023-09-18T05:42:20.556Z, 25.22
2023-09-18T05:43:20.568Z, 25.22
2023-09-18T05:44:20.623Z, 25.22
2023-09-18T05:45:20.561Z, 25.22
2023-09-18T05:46:20.601Z, 25.22
2023-09-18T05:47:20.619Z, 25.22
2023-09-18T05:48:20.611Z, 25.22
2023-09-18T05:49:20.588Z, 25.22
2023-09-18T05:50:20.592Z, 25.21
2023-09-18T05:51:21.577Z, 25.21
2023-09-18T05:52:21.745Z, 25.21
2023-09-18T05:53:20.756Z, 25.21
2023-09-18T05:54:21.748Z, 25.21
2023-09-18T05:55:20.737Z, 25.22
2023-09-18T05:56:20.774Z, 25.22
2023-09-18T05:57:20.759Z, 25.22
2023-09-18T05:58:20.739Z, 25.22
2023-09-18T05:59:20.768Z, 25.22
2023-09-18T06:00:20.739Z, 25.22
2023-09-18T06:01:20.762Z, 25.22
2023-09-18T06:02:20.758Z, 25.22
2023-09-18T06:03:20.990Z, 25.22
2023-09-18T06:04:20.806Z, 25.22
2023-09-18T06:05:20.844Z, 25.22
2023-09-18T06:06:20.918Z, 25.22
2023-09-18T06:07:20.924Z, 25.22
2023-09-18T06:08:20.953Z, 25.22
2023-09-18T06:09:20.927Z, 25.22
2023-09-18T06:10:20.925Z, 25.22
2023-09-18T06:11:20.944Z, 25.22
2023-09-18T06:12:20.942Z, 25.22
2023-09-18T06:13:20.920Z, 25.22
2023-09-18T06:14:20.957Z, 25.22
2023-09-18T06:15:20.953Z, 25.22
2023-09-18T06:16:20.971Z, 25.22
2023-09-18T06:17:20.983Z, 25.22
2023-09-18T06:18:20.951Z, 25.22
2023-09-18T06:19:21.099Z, 25.22
2023-09-18T06:20:20.981Z, 25.22
2023-09-18T06:21:20.945Z, 25.22
2023-09-18T06:22:20.979Z, 25.22
2023-09-18T06:23:20.975Z, 25.22
2023-09-18T06:24:21.093Z, 25.22
2023-09-18T06:25:21.099Z, 25.22
2023-09-18T06:26:21.123Z, 25.23
2023-09-18T06:27:21.107Z, 25.22
2023-09-18T06:28:21.101Z, 25.23
2023-09-18T06:29:21.174Z, 25.23
2023-09-18T06:30:21.097Z, 25.23
2023-09-18T06:31:21.459Z, 25.23
2023-09-18T06:32:21.133Z, 25.23
2023-09-18T06:33:21.303Z, 25.23
2023-09-18T06:34:21.615Z, 25.23
2023-09-18T06:35:21.312Z, 25.23
2023-09-18T06:36:21.128Z, 25.23
2023-09-18T06:37:21.136Z, 25.23
2023-09-18T06:38:21.167Z, 25.23
2023-09-18T06:39:21.142Z, 25.24
2023-09-18T06:40:21.288Z, 25.23
2023-09-18T06:41:21.310Z, 25.24
2023-09-18T06:42:21.458Z, 25.24
2023-09-18T06:43:21.285Z, 25.24
2023-09-18T06:44:21.385Z, 25.24
2023-09-18T06:45:21.287Z, 25.24
2023-09-18T06:46:23.300Z, 25.24
2023-09-18T06:47:22.210Z, 25.24
2023-09-18T06:48:21.367Z, 25.24
2023-09-18T06:49:21.404Z, 25.24
2023-09-18T06:50:21.328Z, 25.24
2023-09-18T06:51:30.148Z, 25.24
2023-09-18T06:52:21.337Z, 25.24
2023-09-18T06:53:28.460Z, 25.24
2023-09-18T06:54:21.330Z, 25.24
2023-09-18T06:55:21.473Z, 25.24
2023-09-18T06:56:21.493Z, 25.24
2023-09-18T06:57:21.472Z, 25.24
2023-09-18T06:58:21.473Z, 25.24
2023-09-18T06:59:21.484Z, 25.24
2023-09-18T07:00:21.498Z, 25.25
2023-09-18T07:01:21.573Z, 25.25
2023-09-18T07:02:21.551Z, 25.25
2023-09-18T07:03:21.863Z, 25.25
2023-09-18T07:04:21.567Z, 25.25
2023-09-18T07:05:21.499Z, 25.25
2023-09-18T07:06:21.490Z, 25.25
2023-09-18T07:07:21.504Z, 25.25
2023-09-18T07:08:22.430Z, 25.25
2023-09-18T07:09:21.528Z, 25.25
2023-09-18T07:10:21.683Z, 25.25
2023-09-18T07:11:22.445Z, 25.25
2023-09-18T07:12:21.650Z, 25.25
2023-09-18T07:13:21.647Z, 25.25
2023-09-18T07:14:21.666Z, 25.25
2023-09-18T07:15:21.651Z, 25.25
2023-09-18T07:16:21.694Z, 25.25
2023-09-18T07:17:21.708Z, 25.25
2023-09-18T07:18:21.660Z, 25.25
2023-09-18T07:19:21.820Z, 25.26
2023-09-18T07:20:21.849Z, 25.26
2023-09-18T07:21:21.845Z, 25.25
2023-09-18T07:22:21.836Z, 25.25
2023-09-18T07:23:21.838Z, 25.25
2023-09-18T07:24:21.899Z, 25.25
2023-09-18T07:25:21.832Z, 25.26
2023-09-18T07:26:21.845Z, 25.26
2023-09-18T07:27:21.842Z, 25.26
2023-09-18T07:28:21.833Z, 25.26
2023-09-18T07:29:21.831Z, 25.26
2023-09-18T07:30:21.829Z, 25.26
2023-09-18T07:31:21.847Z, 25.26
2023-09-18T07:32:36.695Z, 25.26
2023-09-18T07:33:21.923Z, 25.26
2023-09-18T07:34:21.828Z, 25.26
2023-09-18T07:35:21.901Z, 25.26
2023-09-18T07:36:21.860Z, 25.26
2023-09-18T07:37:21.847Z, 25.26
2023-09-18T07:38:21.925Z, 25.26
2023-09-18T07:39:22.022Z, 25.26
2023-09-18T07:40:22.039Z, 25.26
2023-09-18T07:41:22.021Z, 25.26
2023-09-18T07:42:22.023Z, 25.26
2023-09-18T07:43:22.011Z, 25.26
2023-09-18T07:44:22.100Z, 25.26
2023-09-18T07:45:22.023Z, 25.26
2023-09-18T07:46:22.069Z, 25.26
2023-09-18T07:47:22.088Z, 25.26
2023-09-18T07:48:22.091Z, 25.26
2023-09-18T07:49:22.094Z, 25.26
2023-09-18T07:50:22.122Z, 25.26
2023-09-18T07:51:22.098Z, 25.26
2023-09-18T07:52:22.102Z, 25.26
2023-09-18T07:53:22.086Z, 25.26
2023-09-18T07:54:22.092Z, 25.26
2023-09-18T07:55:22.096Z, 25.26
2023-09-18T07:56:22.108Z, 25.26
2023-09-18T07:57:22.084Z, 25.26
2023-09-18T07:58:22.096Z, 25.26
2023-09-18T07:59:22.144Z, 25.26
2023-09-18T08:00:22.101Z, 25.26
2023-09-18T08:01:22.116Z, 25.26
2023-09-18T08:02:22.119Z, 25.26
2023-09-18T08:03:22.170Z, 25.26
2023-09-18T08:04:22.111Z, 25.26
2023-09-18T08:05:22.154Z, 25.26
2023-09-18T08:06:22.086Z, 25.26
2023-09-18T08:07:22.146Z, 25.26
2023-09-18T08:08:22.186Z, 25.26
2023-09-18T08:09:22.160Z, 25.26
2023-09-18T08:10:22.232Z, 25.26
2023-09-18T08:11:22.186Z, 25.26
2023-09-18T08:12:22.183Z, 25.26
2023-09-18T08:13:22.190Z, 25.26
2023-09-18T08:14:23.331Z, 25.26
2023-09-18T08:15:22.272Z, 25.26
2023-09-18T08:16:22.306Z, 25.26
2023-09-18T08:17:22.312Z, 25.26
2023-09-18T08:18:22.395Z, 25.27
2023-09-18T08:19:22.424Z, 25.26
2023-09-18T08:20:22.330Z, 25.26
2023-09-18T08:21:22.313Z, 25.26
2023-09-18T08:22:22.381Z, 25.26
2023-09-18T08:23:22.361Z, 25.26
2023-09-18T08:24:22.359Z, 25.26
2023-09-18T08:25:22.396Z, 25.26
2023-09-18T08:26:27.401Z, 25.26
2023-09-18T08:27:22.403Z, 25.26
2023-09-18T08:28:22.418Z, 25.26
2023-09-18T08:29:22.504Z, 25.26
2023-09-18T08:30:22.444Z, 25.26
2023-09-18T08:31:22.585Z, 25.26
2023-09-18T08:32:22.617Z, 25.26
2023-09-18T08:33:22.456Z, 25.26
2023-09-18T08:34:23.868Z, 25.26
2023-09-18T08:35:22.494Z, 25.26
2023-09-18T08:36:22.451Z, 25.26
2023-09-18T08:37:22.467Z, 25.26
2023-09-18T08:38:23.608Z, 25.26
2023-09-18T08:39:22.509Z, 25.26
2023-09-18T08:40:22.591Z, 25.26
2023-09-18T08:41:23.607Z, 25.26
2023-09-18T08:42:22.582Z, 25.26
2023-09-18T08:43:22.582Z, 25.26
2023-09-18T08:44:22.635Z, 25.26
2023-09-18T08:45:22.618Z, 25.26
2023-09-18T08:46:22.586Z, 25.26
2023-09-18T08:47:22.754Z, 25.26
2023-09-18T08:48:22.783Z, 25.26
2023-09-18T08:49:22.666Z, 25.26
2023-09-18T08:50:22.738Z, 25.26
2023-09-18T08:51:22.702Z, 25.27
2023-09-18T08:52:23.789Z, 25.26
2023-09-18T08:53:23.812Z, 25.26
2023-09-18T08:54:22.744Z, 25.26
2023-09-18T08:55:22.778Z, 25.26
2023-09-18T08:56:27.748Z, 25.26
2023-09-18T08:57:22.785Z, 25.26
2023-09-18T08:58:22.756Z, 25.26
2023-09-18T08:59:22.817Z, 25.26
2023-09-18T09:00:22.773Z, 25.26
2023-09-18T09:01:22.807Z, 25.26
2023-09-18T09:02:22.847Z, 25.26
2023-09-18T09:04:22.828Z, 25.26
2023-09-18T09:05:22.884Z, 25.26
2023-09-18T09:06:22.900Z, 25.27
2023-09-18T09:07:22.887Z, 25.26
2023-09-18T09:08:22.930Z, 25.26
2023-09-18T09:09:22.904Z, 25.27
2023-09-18T09:10:22.938Z, 25.26
2023-09-18T09:11:22.993Z, 25.27
2023-09-18T09:12:22.926Z, 25.27
2023-09-18T09:13:34.737Z, 25.26
2023-09-18T09:14:23.203Z, 25.26
2023-09-18T09:15:23.111Z, 25.27
2023-09-18T09:16:23.015Z, 25.27
2023-09-18T09:17:22.993Z, 25.27
2023-09-18T09:18:22.980Z, 25.27
2023-09-18T09:19:22.980Z, 25.27
2023-09-18T09:20:23.078Z, 25.27
2023-09-18T09:21:22.996Z, 25.27
2023-09-18T09:22:23.006Z, 25.27
2023-09-18T09:23:24.041Z, 25.27
2023-09-18T09:24:23.142Z, 25.27
2023-09-18T09:25:23.113Z, 25.26
2023-09-18T09:26:23.137Z, 25.27
2023-09-18T09:27:23.089Z, 25.27
2023-09-18T09:28:23.146Z, 25.27
2023-09-18T09:29:23.172Z, 25.27
2023-09-18T09:30:23.240Z, 25.26
2023-09-18T09:31:23.243Z, 25.26
2023-09-18T09:32:23.247Z, 25.26
2023-09-18T09:33:23.257Z, 25.27
2023-09-18T09:34:24.807Z, 25.27
2023-09-18T09:35:23.215Z, 25.27
2023-09-18T09:36:23.191Z, 25.27
2023-09-18T09:37:24.200Z, 25.26
2023-09-18T09:38:24.208Z, 25.26
2023-09-18T09:39:23.248Z, 25.26
2023-09-18T09:40:23.214Z, 25.26
2023-09-18T09:41:23.310Z, 25.26
2023-09-18T09:42:23.242Z, 25.26
2023-09-18T09:43:23.320Z, 25.26
2023-09-18T09:44:23.356Z, 25.26
2023-09-18T09:45:23.308Z, 25.26
2023-09-18T09:46:23.317Z, 25.26
2023-09-18T09:47:23.325Z, 25.26
2023-09-18T09:48:23.471Z, 25.26
2023-09-18T09:49:23.381Z, 25.26
2023-09-18T09:50:23.453Z, 25.27
2023-09-18T09:51:23.371Z, 25.26
2023-09-18T09:52:23.410Z, 25.27
2023-09-18T09:53:23.434Z, 25.26
2023-09-18T09:54:23.452Z, 25.26
2023-09-18T09:55:23.394Z, 25.26
2023-09-18T09:56:23.685Z, 25.26
2023-09-18T09:57:23.409Z, 25.26
2023-09-18T09:58:23.419Z, 25.26
2023-09-18T09:59:23.560Z, 25.26
2023-09-18T10:00:23.558Z, 25.26
2023-09-18T10:01:23.608Z, 25.26
2023-09-18T10:02:23.649Z, 25.26
2023-09-18T10:03:23.699Z, 25.26
2023-09-18T10:04:23.631Z, 25.26
2023-09-18T10:05:23.547Z, 25.26
2023-09-18T10:06:23.538Z, 25.26
2023-09-18T10:07:23.564Z, 25.26
2023-09-18T10:08:23.680Z, 25.26
2023-09-18T10:09:23.597Z, 25.26
2023-09-18T10:10:24.660Z, 25.26
2023-09-18T10:11:23.677Z, 25.26
2023-09-18T10:12:23.621Z, 25.26
2023-09-18T10:13:23.681Z, 25.26
2023-09-18T10:14:23.738Z, 25.26
2023-09-18T10:15:23.728Z, 25.26
2023-09-18T10:16:23.701Z, 25.26
2023-09-18T10:17:23.707Z, 25.26
2023-09-18T10:18:23.792Z, 25.26
2023-09-18T10:19:24.678Z, 25.26
2023-09-18T10:20:23.809Z, 25.26
2023-09-18T10:21:23.726Z, 25.26
2023-09-18T10:22:23.806Z, 25.26
2023-09-18T10:23:23.818Z, 25.26
2023-09-18T10:24:24.819Z, 25.26
2023-09-18T10:25:24.818Z, 25.26
2023-09-18T10:26:23.801Z, 25.26
2023-09-18T10:27:23.839Z, 25.26
2023-09-18T10:28:23.797Z, 25.26
2023-09-18T10:29:23.898Z, 25.26
2023-09-18T10:30:23.877Z, 25.25
2023-09-18T10:31:23.894Z, 25.26
2023-09-18T10:32:23.940Z, 25.25
2023-09-18T10:33:23.911Z, 25.26
2023-09-18T10:34:23.930Z, 25.25
2023-09-18T10:35:23.962Z, 25.26
2023-09-18T10:36:23.920Z, 25.25
2023-09-18T10:37:23.947Z, 25.25
2023-09-18T10:38:24.371Z, 25.25
2023-09-18T10:39:23.994Z, 25.25
2023-09-18T10:40:24.039Z, 25.25
2023-09-18T10:41:23.990Z, 25.25
2023-09-18T10:42:23.992Z, 25.25
2023-09-18T10:43:23.992Z, 25.25
2023-09-18T10:44:24.159Z, 25.25
2023-09-18T10:45:24.045Z, 25.24
2023-09-18T10:46:24.059Z, 25.23
2023-09-18T10:47:24.136Z, 25.23
2023-09-18T10:48:24.227Z, 25.22
2023-09-18T10:49:24.194Z, 25.21
2023-09-18T10:50:24.192Z, 25.20
2023-09-18T10:51:24.375Z, 25.20
2023-09-18T10:52:24.373Z, 25.20
2023-09-18T10:53:24.176Z, 25.20
2023-09-18T10:54:24.146Z, 25.20
2023-09-18T10:55:24.155Z, 25.19
2023-09-18T10:56:24.234Z, 25.19
2023-09-18T10:57:24.593Z, 25.19
2023-09-18T10:58:24.260Z, 25.19
2023-09-18T10:59:24.448Z, 25.18
2023-09-18T11:00:24.280Z, 25.18
2023-09-18T11:01:24.275Z, 25.17
2023-09-18T11:02:24.359Z, 25.17
2023-09-18T11:03:24.397Z, 25.17
2023-09-18T11:04:24.601Z, 25.16
2023-09-18T11:05:24.555Z, 25.16
2023-09-18T11:06:24.301Z, 25.16
2023-09-18T11:07:24.304Z, 25.16
2023-09-18T11:08:24.380Z, 25.15
2023-09-18T11:09:24.341Z, 25.15
2023-09-18T11:10:24.377Z, 25.15
2023-09-18T11:11:29.386Z, 25.15
2023-09-18T11:12:25.396Z, 25.15
2023-09-18T11:13:24.384Z, 25.15
2023-09-18T11:14:24.479Z, 25.15
2023-09-18T11:15:24.430Z, 25.14
2023-09-18T11:16:24.430Z, 25.14
2023-09-18T11:17:24.620Z, 25.14
2023-09-18T11:18:24.545Z, 25.14
2023-09-18T11:19:24.499Z, 25.14
2023-09-18T11:20:24.492Z, 25.14
2023-09-18T11:21:24.473Z, 25.14
2023-09-18T11:22:24.544Z, 25.14
2023-09-18T11:23:24.516Z, 25.14
2023-09-18T11:24:24.566Z, 25.14
2023-09-18T11:25:24.515Z, 25.14
2023-09-18T11:26:24.684Z, 25.14
2023-09-18T11:27:24.609Z, 25.14
2023-09-18T11:28:24.786Z, 25.14
2023-09-18T11:29:24.718Z, 25.13
2023-09-18T11:30:24.590Z, 25.13
2023-09-18T11:31:25.697Z, 25.13
2023-09-18T11:32:24.649Z, 25.13
2023-09-18T11:33:24.821Z, 25.13
2023-09-18T11:34:24.701Z, 25.13
2023-09-18T11:35:24.779Z, 25.13
2023-09-18T11:36:24.656Z, 25.13
2023-09-18T11:37:24.732Z, 25.13
2023-09-18T11:38:24.785Z, 25.13
2023-09-18T11:39:24.735Z, 25.13
2023-09-18T11:40:24.742Z, 25.13
2023-09-18T11:41:24.837Z, 25.13
2023-09-18T11:42:24.784Z, 25.13
2023-09-18T11:43:24.752Z, 25.13
2023-09-18T11:44:24.985Z, 25.13
2023-09-18T11:45:24.821Z, 25.13
2023-09-18T11:46:24.827Z, 25.13
2023-09-18T11:47:24.942Z, 25.13
2023-09-18T11:48:24.881Z, 25.13
2023-09-18T11:49:24.816Z, 25.12
2023-09-18T11:50:24.913Z, 25.12
2023-09-18T11:51:24.946Z, 25.12
2023-09-18T11:52:24.918Z, 25.12
2023-09-18T11:53:24.990Z, 25.12
2023-09-18T11:54:25.959Z, 25.12
2023-09-18T11:55:25.934Z, 25.12
2023-09-18T11:56:25.073Z, 25.12
2023-09-18T11:57:24.966Z, 25.12
2023-09-18T11:58:24.966Z, 25.12
2023-09-18T11:59:24.963Z, 25.12
2023-09-18T12:00:24.985Z, 25.12
2023-09-18T12:01:25.047Z, 25.12
2023-09-18T12:02:25.002Z, 25.11
2023-09-18T12:03:25.196Z, 25.11
2023-09-18T12:04:25.093Z, 25.11
2023-09-18T12:05:25.078Z, 25.11
2023-09-18T12:06:25.098Z, 25.11
2023-09-18T12:07:25.078Z, 25.11
2023-09-18T12:08:25.141Z, 25.11
2023-09-18T12:09:25.128Z, 25.11
2023-09-18T12:10:25.135Z, 25.11
2023-09-18T12:11:25.156Z, 25.11
2023-09-18T12:12:25.124Z, 25.11
2023-09-18T12:13:25.174Z, 25.11
2023-09-18T12:14:25.148Z, 25.10
2023-09-18T12:15:25.134Z, 25.10
2023-09-18T12:16:25.198Z, 25.10
2023-09-18T12:17:25.234Z, 25.10
2023-09-18T12:18:25.940Z, 25.10
2023-09-18T12:19:25.271Z, 25.10
2023-09-18T12:20:25.279Z, 25.10
2023-09-18T12:21:25.276Z, 25.10
2023-09-18T12:22:25.274Z, 25.10
2023-09-18T12:23:25.380Z, 25.10
2023-09-18T12:24:25.275Z, 25.09
2023-09-18T12:25:25.276Z, 25.09
2023-09-18T12:26:26.459Z, 25.09
2023-09-18T12:27:25.267Z, 25.09
2023-09-18T12:28:25.322Z, 25.09
2023-09-18T12:29:25.339Z, 25.09